Time;durP1;ratioP1;P1;durP2;ratioP2;P2;SDS_P1;SDS_P2;PMS_P1;PMS_P2;Temp;Humidity;BMP_temperature;BMP_pressure;BME280_temperature;BME280_humidity;BME280_pressure;Samples;Min_cycle;Max_cycle;Signal;HPM_P1;HPM_P2
2021/10/15 00:00:23;;;;;;;23.30;12.55;;;;;;;11.07;nan;101549.59;5078565;28;20032;-47
2021/10/15 00:02:49;;;;;;;24.10;12.75;;;;;;;11.05;nan;101549.00;5073261;28;20636;-47
2021/10/15 00:05:14;;;;;;;30.58;14.07;;;;;;;11.14;nan;101541.44;5077586;28;20059;-47
2021/10/15 00:07:40;;;;;;;25.05;13.10;;;;;;;11.07;nan;101543.41;5075558;28;20436;-46
2021/10/15 00:10:07;;;;;;;24.85;13.68;;;;;;;11.04;nan;101538.50;5071524;28;20036;-48
2021/10/15 00:12:34;;;;;;;20.40;12.35;;;;;;;11.11;nan;101534.66;5087152;28;20023;-46
2021/10/15 00:14:59;;;;;;;23.75;13.32;;;;;;;11.11;nan;101528.47;5073258;28;20063;-46
2021/10/15 00:17:25;;;;;;;21.55;12.77;;;;;;;11.12;nan;101522.88;5071358;28;20060;-48
2021/10/15 00:19:50;;;;;;;21.88;12.10;;;;;;;11.07;nan;101522.75;5074850;28;20032;-46
2021/10/15 00:22:16;;;;;;;20.63;12.52;;;;;;;11.05;nan;101526.72;5081901;28;20030;-47
2021/10/15 00:24:41;;;;;;;23.25;13.15;;;;;;;11.10;nan;101530.34;5069296;28;20096;-48
2021/10/15 00:27:07;;;;;;;21.52;12.80;;;;;;;11.09;nan;101517.97;5072813;28;20021;-48
2021/10/15 00:29:32;;;;;;;21.45;13.90;;;;;;;11.01;nan;101512.16;5070629;28;20154;-46
2021/10/15 00:31:58;;;;;;;25.42;13.15;;;;;;;11.16;nan;101513.34;5078926;28;20096;-46
2021/10/15 00:34:23;;;;;;;23.23;13.13;;;;;;;11.15;nan;101511.72;5074527;28;20027;-46
2021/10/15 00:36:49;;;;;;;26.40;14.07;;;;;;;11.13;nan;101505.75;5086469;28;20485;-46
2021/10/15 00:39:15;;;;;;;22.00;12.57;;;;;;;11.18;nan;101503.19;5070160;28;20055;-46
2021/10/15 00:41:41;;;;;;;23.92;13.15;;;;;;;11.16;nan;101513.34;5079304;28;20300;-48
2021/10/15 00:44:09;;;;;;;20.90;12.80;;;;;;;11.10;nan;101497.34;5070873;28;20027;-46
2021/10/15 00:46:37;;;;;;;25.50;12.93;;;;;;;11.20;nan;101494.91;5076774;28;20406;-46
2021/10/15 00:49:04;;;;;;;23.45;13.07;;;;;;;11.11;nan;101498.97;5083793;28;20039;-46
2021/10/15 00:51:31;;;;;;;25.38;12.68;;;;;;;11.20;nan;101484.19;5074644;28;20035;-48
2021/10/15 00:53:57;;;;;;;27.23;14.63;;;;;;;11.13;nan;101483.47;5073709;28;20374;-47
2021/10/15 00:56:24;;;;;;;21.83;13.60;;;;;;;11.17;nan;101484.66;5071875;28;20115;-46
2021/10/15 00:58:49;;;;;;;22.70;12.38;;;;;;;11.10;nan;101478.56;5080301;28;20086;-46
2021/10/15 01:01:15;;;;;;;26.25;12.73;;;;;;;11.01;nan;101474.63;5073471;28;20109;-47
2021/10/15 01:03:40;;;;;;;20.73;13.48;;;;;;;11.11;nan;101467.59;5074135;28;20031;-46
2021/10/15 01:06:06;;;;;;;27.30;14.73;;;;;;;11.14;nan;101467.16;5078944;28;20028;-46
2021/10/15 01:08:38;;;;;;;27.38;14.27;;;;;;;11.10;nan;101462.47;5073814;28;20078;-46
2021/10/15 01:11:04;;;;;;;26.40;16.23;;;;;;;11.12;nan;101463.88;5078965;28;20449;-46
2021/10/15 01:13:30;;;;;;;28.52;14.25;;;;;;;11.15;nan;101447.34;5074066;28;20412;-46
2021/10/15 01:16:08;;;;;;;28.15;15.38;;;;;;;11.09;nan;101442.88;5081445;28;20107;-46
2021/10/15 01:18:34;;;;;;;29.27;15.13;;;;;;;11.17;nan;101447.09;5073848;28;20025;-46
2021/10/15 01:21:00;;;;;;;32.28;16.80;;;;;;;11.19;nan;101440.44;5078496;28;20031;-45
2021/10/15 01:23:26;;;;;;;31.55;16.35;;;;;;;11.13;nan;101438.72;5071069;28;20379;-49
2021/10/15 01:25:55;;;;;;;33.35;17.17;;;;;;;11.12;nan;101429.00;5070282;28;20024;-46
2021/10/15 01:28:23;;;;;;;33.20;17.77;;;;;;;11.17;nan;101428.31;5070418;28;20386;-47
2021/10/15 01:30:49;;;;;;;31.15;17.23;;;;;;;11.18;nan;101429.94;5076784;28;20174;-46
2021/10/15 01:33:15;;;;;;;38.45;18.20;;;;;;;11.18;nan;101427.28;5074096;28;20039;-46
2021/10/15 01:35:41;;;;;;;35.63;18.13;;;;;;;11.17;nan;101425.63;5075198;28;20050;-46
2021/10/15 01:38:07;;;;;;;39.65;21.00;;;;;;;11.15;nan;101412.47;5074155;28;20024;-48
2021/10/15 01:40:35;;;;;;;39.08;20.40;;;;;;;11.17;nan;101406.88;5072609;28;20052;-46
2021/10/15 01:43:00;;;;;;;37.63;20.38;;;;;;;11.28;nan;101405.19;5071381;28;20236;-46
2021/10/15 01:45:30;;;;;;;39.60;21.38;;;;;;;11.16;nan;101405.25;5069001;28;20424;-48
2021/10/15 01:47:57;;;;;;;39.05;21.15;;;;;;;11.22;nan;101395.41;5078079;28;20089;-47
2021/10/15 01:50:25;;;;;;;43.03;23.10;;;;;;;11.19;nan;101391.34;5087428;22;20052;-81
2021/10/15 01:52:52;;;;;;;39.47;22.13;;;;;;;11.21;nan;101386.56;5105781;28;20492;-82
2021/10/15 01:55:19;;;;;;;42.08;22.45;;;;;;;11.27;nan;101392.84;5093780;28;20460;-81
2021/10/15 01:57:46;;;;;;;45.42;23.88;;;;;;;11.25;nan;101384.22;5109581;27;20101;-81
2021/10/15 02:00:13;;;;;;;45.25;24.42;;;;;;;11.21;nan;101375.84;5088783;28;20016;-81
2021/10/15 02:02:39;;;;;;;45.78;24.80;;;;;;;11.33;nan;101375.81;5111997;27;20024;-81
2021/10/15 02:05:08;;;;;;;45.33;24.80;;;;;;;11.30;nan;101373.56;5114234;28;20027;-81
2021/10/15 02:07:34;;;;;;;46.28;25.65;;;;;;;11.30;nan;101381.63;5101921;28;20020;-80
2021/10/15 02:10:00;;;;;;;44.88;24.23;;;;;;;11.36;nan;101380.69;5095779;27;20038;-81
2021/10/15 02:12:25;;;;;;;47.88;27.70;;;;;;;11.40;nan;101381.84;5101478;28;20033;-80
2021/10/15 02:14:51;;;;;;;46.78;26.50;;;;;;;11.39;nan;101381.03;5112656;27;20388;-82
2021/10/15 02:17:18;;;;;;;46.45;24.95;;;;;;;11.42;nan;101369.00;5092548;28;20024;-82
2021/10/15 02:19:44;;;;;;;47.80;24.65;;;;;;;11.43;nan;101365.25;5106770;27;20027;-82
2021/10/15 02:22:10;;;;;;;45.67;25.95;;;;;;;11.44;nan;101356.97;5109232;27;20023;-81
2021/10/15 02:24:36;;;;;;;45.97;25.95;;;;;;;11.47;nan;101350.31;5092303;28;20028;-81
2021/10/15 02:27:02;;;;;;;33.90;19.05;;;;;;;11.43;nan;101349.97;5091249;28;20031;-81
2021/10/15 02:29:28;;;;;;;42.97;25.75;;;;;;;11.50;nan;101345.31;5095845;27;20035;-81
2021/10/15 02:31:54;;;;;;;40.42;23.38;;;;;;;11.44;nan;101346.25;5102090;28;20103;-81
2021/10/15 02:34:20;;;;;;;43.38;24.73;;;;;;;11.53;nan;101344.00;5108574;28;20114;-81
2021/10/15 02:36:46;;;;;;;41.38;24.80;;;;;;;11.52;nan;101333.50;5088100;28;20027;-81
2021/10/15 02:39:12;;;;;;;40.30;22.92;;;;;;;11.43;nan;101327.69;5086324;28;20028;-82
2021/10/15 02:41:38;;;;;;;40.03;21.67;;;;;;;11.46;nan;101327.22;5113970;28;20397;-81
2021/10/15 02:44:10;;;;;;;42.00;24.05;;;;;;;11.44;nan;101329.31;5099010;28;20015;-82
2021/10/15 02:46:36;;;;;;;41.67;23.95;;;;;;;11.52;nan;101328.97;5091566;28;20118;-82
2021/10/15 02:49:03;;;;;;;49.50;25.65;;;;;;;11.52;nan;101331.66;5089658;28;20118;-81
2021/10/15 02:51:28;;;;;;;39.50;24.05;;;;;;;11.48;nan;101323.25;5095183;28;20717;-81
2021/10/15 02:53:54;;;;;;;41.42;23.63;;;;;;;11.45;nan;101323.72;5093211;28;20023;-81
2021/10/15 02:56:19;;;;;;;39.97;24.13;;;;;;;11.53;nan;101311.81;5089382;28;20032;-81
2021/10/15 02:58:45;;;;;;;39.30;23.77;;;;;;;11.46;nan;101306.56;5097650;28;20023;-81
2021/10/15 03:01:11;;;;;;;44.47;24.38;;;;;;;11.53;nan;101300.25;5116019;28;20023;-81
2021/10/15 03:03:37;;;;;;;39.53;22.23;;;;;;;11.50;nan;101302.38;5093407;28;20027;-81
2021/10/15 03:06:03;;;;;;;40.45;23.35;;;;;;;11.46;nan;101300.38;5113010;28;20053;-81
2021/10/15 03:08:29;;;;;;;39.05;23.55;;;;;;;11.44;nan;101294.44;5111242;27;20023;-81
2021/10/15 03:10:55;;;;;;;38.88;22.38;;;;;;;11.43;nan;101299.00;5125310;28;20027;-80
2021/10/15 03:13:21;;;;;;;38.78;22.17;;;;;;;11.38;nan;101290.06;5117045;27;20035;-80
2021/10/15 03:15:46;;;;;;;37.78;20.58;;;;;;;11.35;nan;101279.81;5120307;27;20297;-80
2021/10/15 03:18:12;;;;;;;33.53;21.70;;;;;;;11.38;nan;101277.44;5115941;27;20039;-80
2021/10/15 03:20:38;;;;;;;39.45;23.13;;;;;;;11.30;nan;101279.69;5119340;27;20092;-80
2021/10/15 03:23:04;;;;;;;37.08;22.50;;;;;;;11.30;nan;101266.28;5137626;27;20289;-80
2021/10/15 03:25:30;;;;;;;36.28;21.50;;;;;;;11.39;nan;101267.53;5137496;27;20087;-81
2021/10/15 03:27:56;;;;;;;40.67;21.50;;;;;;;11.39;nan;101270.22;5131316;27;20019;-81
2021/10/15 03:30:22;;;;;;;33.42;20.75;;;;;;;11.38;nan;101276.63;5123777;27;20027;-82
2021/10/15 03:32:47;;;;;;;34.60;21.35;;;;;;;11.32;nan;101270.38;5119372;27;20033;-81
2021/10/15 03:35:13;;;;;;;37.47;21.10;;;;;;;11.35;nan;101269.06;5116751;28;20032;-81
2021/10/15 03:37:39;;;;;;;33.28;20.52;;;;;;;11.37;nan;101277.69;5137362;27;20109;-81
2021/10/15 03:40:06;;;;;;;34.78;20.27;;;;;;;11.36;nan;101259.97;5118349;27;20280;-82
2021/10/15 03:42:32;;;;;;;30.05;17.58;;;;;;;11.35;nan;101271.75;5119157;28;20027;-81
2021/10/15 03:44:57;;;;;;;28.52;17.52;;;;;;;11.29;nan;101261.97;5136660;27;20027;-82
2021/10/15 03:47:23;;;;;;;26.27;16.77;;;;;;;11.35;nan;101261.03;5116167;28;20085;-82
2021/10/15 03:49:49;;;;;;;30.95;18.52;;;;;;;11.31;nan;101258.00;5116275;28;20039;-82
2021/10/15 03:52:15;;;;;;;30.02;18.20;;;;;;;11.33;nan;101252.41;5117535;28;20020;-82
2021/10/15 03:54:40;;;;;;;30.70;18.35;;;;;;;11.39;nan;101256.81;5121541;27;20031;-82
2021/10/15 03:57:06;;;;;;;26.35;17.35;;;;;;;11.33;nan;101249.72;5114595;28;20246;-82
2021/10/15 03:59:32;;;;;;;30.13;18.63;;;;;;;11.35;nan;101250.28;5117071;28;20031;-81
2021/10/15 04:01:57;;;;;;;27.25;16.58;;;;;;;11.35;nan;101258.34;5111749;27;20178;-81
2021/10/15 04:04:23;;;;;;;26.55;16.58;;;;;;;11.25;nan;101260.81;5114707;28;20207;-81
2021/10/15 04:06:49;;;;;;;23.33;14.45;;;;;;;11.30;nan;101252.88;5113572;28;20022;-81
2021/10/15 04:09:15;;;;;;;25.63;15.43;;;;;;;11.25;nan;101244.72;5117300;27;20034;-80
2021/10/15 04:11:40;;;;;;;27.60;16.52;;;;;;;11.27;nan;101245.31;5131774;27;20202;-80
2021/10/15 04:14:06;;;;;;;27.27;17.25;;;;;;;11.27;nan;101243.44;5126382;28;20028;-82
2021/10/15 04:16:33;;;;;;;24.20;14.45;;;;;;;11.29;nan;101232.47;5113321;28;20032;-81
2021/10/15 04:18:59;;;;;;;26.92;16.10;;;;;;;11.23;nan;101220.03;5133287;27;20083;-81
2021/10/15 04:21:25;;;;;;;24.42;15.02;;;;;;;11.27;nan;101235.38;5136910;27;20019;-81
2021/10/15 04:23:50;;;;;;;22.75;14.80;;;;;;;11.30;nan;101226.03;5117594;28;20043;-80
2021/10/15 04:26:16;;;;;;;26.27;15.40;;;;;;;11.30;nan;101220.66;5111457;28;20028;-81
2021/10/15 04:28:42;;;;;;;24.45;14.23;;;;;;;11.22;nan;101211.16;5115944;27;20030;-81
2021/10/15 04:31:08;;;;;;;22.80;14.07;;;;;;;11.22;nan;101208.47;5130721;27;20318;-81
2021/10/15 04:33:34;;;;;;;19.25;13.02;;;;;;;11.17;nan;101214.56;5132853;27;20015;-82
2021/10/15 04:35:59;;;;;;;24.58;14.27;;;;;;;11.22;nan;101203.13;5130147;27;20019;-81
2021/10/15 04:38:25;;;;;;;24.48;13.85;;;;;;;11.23;nan;101199.38;5125258;27;20019;-82
2021/10/15 04:40:50;;;;;;;18.73;11.98;;;;;;;11.22;nan;101197.75;5112218;28;20043;-81
2021/10/15 04:43:16;;;;;;;18.85;12.10;;;;;;;11.22;nan;101195.06;5127525;27;20039;-81
2021/10/15 04:45:42;;;;;;;17.88;12.70;;;;;;;11.22;nan;101191.56;5118354;27;20032;-81
2021/10/15 04:48:09;;;;;;;19.27;12.88;;;;;;;11.12;nan;101187.63;5109799;28;20024;-82
2021/10/15 04:50:37;;;;;;;19.92;13.35;;;;;;;11.12;nan;101184.97;5118247;28;20065;-81
2021/10/15 04:53:07;;;;;;;20.95;13.32;;;;;;;11.11;nan;101185.19;5094395;28;20004;-81
2021/10/15 04:55:36;;;;;;;22.27;12.90;;;;;;;11.12;nan;101181.47;5096989;28;20023;-81
2021/10/15 04:58:02;;;;;;;21.38;12.48;;;;;;;11.10;nan;101168.28;5096574;28;20039;-81
2021/10/15 05:00:30;;;;;;;21.48;12.88;;;;;;;11.21;nan;101153.22;5112869;28;20035;-81
2021/10/15 05:02:56;;;;;;;19.50;11.68;;;;;;;11.16;nan;101162.00;5115270;28;20027;-81
2021/10/15 05:05:27;;;;;;;20.73;12.05;;;;;;;11.19;nan;101153.44;5106608;28;20027;-81
2021/10/15 05:07:55;;;;;;;18.42;11.80;;;;;;;11.19;nan;101150.78;5107260;28;20020;-81
2021/10/15 05:10:21;;;;;;;17.77;11.13;;;;;;;11.16;nan;101143.22;5106334;28;20064;-81
2021/10/15 05:12:48;;;;;;;15.73;10.77;;;;;;;11.12;nan;101142.03;5087282;28;20260;-81
2021/10/15 05:15:14;;;;;;;20.00;11.25;;;;;;;11.20;nan;101148.91;5090932;28;20031;-81
2021/10/15 05:17:40;;;;;;;18.92;11.60;;;;;;;11.17;nan;101141.34;5094482;28;20020;-81
2021/10/15 05:20:08;;;;;;;16.48;11.52;;;;;;;11.12;nan;101136.69;5088057;28;20016;-81
2021/10/15 05:22:34;;;;;;;16.30;10.15;;;;;;;11.18;nan;101151.00;5087842;28;20020;-81
2021/10/15 05:25:00;;;;;;;17.13;10.50;;;;;;;11.24;nan;101147.34;5117890;28;20028;-81
2021/10/15 05:27:27;;;;;;;17.20;9.93;;;;;;;11.27;nan;101146.06;5108149;28;20608;-81
2021/10/15 05:29:52;;;;;;;18.13;9.73;;;;;;;11.25;nan;101140.94;5099246;28;20084;-82
2021/10/15 05:32:18;;;;;;;17.00;10.45;;;;;;;11.28;nan;101142.31;5109863;28;20015;-81
2021/10/15 05:34:46;;;;;;;14.68;10.32;;;;;;;11.35;nan;101143.78;5085754;28;20078;-81
2021/10/15 05:37:13;;;;;;;14.55;9.98;;;;;;;11.33;nan;101139.75;5105048;28;20408;-81
2021/10/15 05:39:38;;;;;;;14.43;9.27;;;;;;;11.38;nan;101134.44;5104981;28;20074;-80
2021/10/15 05:42:05;;;;;;;17.52;10.57;;;;;;;11.39;nan;101130.69;5104812;28;20266;-82
2021/10/15 05:44:30;;;;;;;16.35;9.18;;;;;;;11.31;nan;101136.47;5100703;28;20380;-82
2021/10/15 05:46:59;;;;;;;15.23;10.60;;;;;;;11.29;nan;101122.47;5086470;28;20024;-81
2021/10/15 05:49:24;;;;;;;13.85;10.18;;;;;;;11.33;nan;101118.28;5083050;28;20077;-81
2021/10/15 05:51:50;;;;;;;15.70;9.90;;;;;;;11.37;nan;101117.53;5098802;28;20024;-81
2021/10/15 05:54:27;;;;;;;16.80;9.73;;;;;;;11.40;nan;101111.69;5107085;28;20016;-81
2021/10/15 05:57:18;;;;;;;14.15;9.55;;;;;;;11.44;nan;101093.22;5107306;28;20020;-81
2021/10/15 05:59:43;;;;;;;14.95;10.13;;;;;;;11.40;nan;101087.53;5092658;28;20024;-83
2021/10/15 06:02:09;;;;;;;14.25;9.23;;;;;;;11.28;nan;101099.41;5095382;28;20057;-82
2021/10/15 06:08:50;;;;;;;12.82;8.32;;;;;;;11.35;nan;101106.25;5111273;28;20023;-81
2021/10/15 06:15:39;;;;;;;16.50;9.35;;;;;;;11.28;nan;101096.72;5103031;28;20060;-80
2021/10/15 06:18:14;;;;;;;15.30;8.70;;;;;;;11.32;nan;101092.50;5085380;28;20020;-80
2021/10/15 06:20:40;;;;;;;15.05;8.82;;;;;;;11.36;nan;101090.97;5086553;28;20079;-81
2021/10/15 06:23:06;;;;;;;12.13;9.15;;;;;;;11.43;nan;101084.34;5081321;28;20028;-81
2021/10/15 06:25:32;;;;;;;14.52;8.60;;;;;;;11.40;nan;101074.13;5098597;28;20389;-75
2021/10/15 06:28:01;;;;;;;11.73;7.88;;;;;;;11.34;nan;101076.97;5091378;28;20015;-75
2021/10/15 06:30:29;;;;;;;13.27;9.00;;;;;;;11.34;nan;101072.44;5082032;28;20116;-76
2021/10/15 06:32:54;;;;;;;12.63;8.73;;;;;;;11.31;nan;101082.81;5092474;28;20085;-75
2021/10/15 06:35:20;;;;;;;12.15;8.55;;;;;;;11.36;nan;101061.44;5069174;28;20589;-75
2021/10/15 06:37:46;;;;;;;13.77;8.73;;;;;;;11.33;nan;101064.63;5095488;28;20552;-75
2021/10/15 06:40:12;;;;;;;12.95;8.30;;;;;;;11.31;nan;101072.06;5100412;28;20020;-76
2021/10/15 06:42:37;;;;;;;16.27;8.27;;;;;;;11.42;nan;101060.44;5077036;28;20559;-76
2021/10/15 06:45:04;;;;;;;11.70;7.68;;;;;;;11.48;nan;101062.16;5077855;28;20142;-80
2021/10/15 06:47:29;;;;;;;12.50;8.23;;;;;;;11.49;nan;101059.25;5075619;28;20069;-79
2021/10/15 06:49:56;;;;;;;12.85;8.15;;;;;;;11.54;nan;101061.19;5106903;28;20031;-79
2021/10/15 06:52:22;;;;;;;11.15;6.45;;;;;;;11.51;nan;101061.69;5094584;27;20035;-75
2021/10/15 06:54:48;;;;;;;13.02;7.40;;;;;;;11.49;nan;101055.75;5108294;27;20051;-88
2021/10/15 06:57:13;;;;;;;14.60;8.40;;;;;;;11.59;nan;101052.38;5101103;28;20393;-87
2021/10/15 06:59:39;;;;;;;11.88;8.18;;;;;;;11.58;nan;101046.19;5117241;28;20104;-85
2021/10/15 07:02:05;;;;;;;10.23;7.88;;;;;;;11.59;nan;101057.75;5100878;28;20390;-87
2021/10/15 07:04:30;;;;;;;10.35;7.47;;;;;;;11.64;nan;101060.50;5117681;28;20032;-86
2021/10/15 07:06:56;;;;;;;8.65;6.65;;;;;;;11.62;nan;101057.25;5100657;28;20022;-87
2021/10/15 07:09:22;;;;;;;10.13;6.88;;;;;;;11.75;nan;101067.63;5117115;28;20039;-87
2021/10/15 07:11:48;;;;;;;10.73;7.90;;;;;;;11.82;nan;101059.44;5099394;28;20072;-86
2021/10/15 07:14:14;;;;;;;8.65;5.45;;;;;;;11.73;nan;101057.16;5101256;28;20516;-86
2021/10/15 07:16:40;;;;;;;9.63;6.38;;;;;;;11.74;nan;101061.47;5099599;28;20019;-86
2021/10/15 07:19:06;;;;;;;10.27;7.07;;;;;;;11.81;nan;101050.56;5107113;28;20030;-87
2021/10/15 07:21:32;;;;;;;11.65;7.18;;;;;;;11.80;nan;101057.81;5093081;28;20015;-85
2021/10/15 07:23:58;;;;;;;9.25;6.07;;;;;;;11.81;nan;101061.28;5096373;28;20046;-86
2021/10/15 07:26:24;;;;;;;14.05;7.47;;;;;;;11.88;nan;101050.41;5101999;28;20042;-87
2021/10/15 07:28:50;;;;;;;12.32;7.47;;;;;;;11.92;nan;101051.50;5100828;28;20095;-87
2021/10/15 07:31:16;;;;;;;9.88;5.82;;;;;;;11.94;nan;101044.03;5118151;27;20036;-85
2021/10/15 07:33:42;;;;;;;8.95;5.95;;;;;;;11.92;nan;101052.31;5101901;28;20019;-86
2021/10/15 07:36:07;;;;;;;11.90;7.30;;;;;;;12.06;nan;101050.91;5101636;28;20551;-86
2021/10/15 07:38:36;;;;;;;11.45;6.80;;;;;;;12.14;nan;101044.25;5099781;28;20024;-86
2021/10/15 07:41:06;;;;;;;13.05;7.40;;;;;;;12.17;nan;101051.81;5100660;28;20024;-85
2021/10/15 07:43:32;;;;;;;11.18;5.97;;;;;;;12.20;nan;101043.25;5106478;28;20506;-86
2021/10/15 07:45:58;;;;;;;8.98;5.57;;;;;;;12.15;nan;101056.63;5099920;28;20061;-86
2021/10/15 07:48:33;;;;;;;10.98;6.45;;;;;;;12.29;nan;101039.06;5100073;28;20080;-87
2021/10/15 07:50:59;;;;;;;11.82;6.78;;;;;;;12.34;nan;101044.47;5092482;28;20035;-88
2021/10/15 07:53:27;;;;;;;14.38;7.35;;;;;;;12.39;nan;101047.25;5094254;28;20028;-88
2021/10/15 07:55:54;;;;;;;12.07;6.25;;;;;;;12.36;nan;101047.72;5096644;28;20039;-86
2021/10/15 07:58:20;;;;;;;14.15;6.43;;;;;;;12.42;nan;101050.50;5108011;28;20062;-86
2021/10/15 08:00:49;;;;;;;10.55;6.03;;;;;;;12.42;nan;101050.50;5094696;28;20058;-86
2021/10/15 08:03:16;;;;;;;10.10;6.53;;;;;;;12.45;nan;101041.91;5089554;28;20034;-87
2021/10/15 08:05:41;;;;;;;10.15;6.78;;;;;;;12.47;nan;101037.91;5107915;28;20023;-86
2021/10/15 08:08:07;;;;;;;7.90;5.45;;;;;;;12.54;nan;101043.88;5096753;28;20050;-87
2021/10/15 08:10:33;;;;;;;9.57;5.05;;;;;;;12.49;nan;101046.53;5095997;28;20054;-87
2021/10/15 08:13:00;;;;;;;9.23;5.75;;;;;;;12.46;nan;101048.91;5095379;28;20055;-88
2021/10/15 08:15:25;;;;;;;9.73;6.07;;;;;;;12.50;nan;101041.97;5115353;28;20093;-88
2021/10/15 08:17:52;;;;;;;9.55;5.40;;;;;;;12.48;nan;101023.41;5115599;28;20023;-86
2021/10/15 08:20:20;;;;;;;9.25;5.80;;;;;;;12.52;nan;101039.81;5099362;27;20043;-87
2021/10/15 08:22:47;;;;;;;10.25;5.00;;;;;;;12.57;nan;101026.47;5103705;28;20060;-88
2021/10/15 08:25:13;;;;;;;10.93;5.10;;;;;;;12.48;nan;101038.72;5134106;28;20027;-87
2021/10/15 08:27:38;;;;;;;8.98;5.65;;;;;;;12.55;nan;101020.50;5116257;27;20034;-86
2021/10/15 08:30:04;;;;;;;7.60;5.60;;;;;;;12.61;nan;101028.38;5096660;28;20028;-87
2021/10/15 08:32:30;;;;;;;7.75;5.75;;;;;;;12.73;nan;101035.47;5106282;28;20035;-86
2021/10/15 08:34:56;;;;;;;7.15;5.03;;;;;;;12.84;nan;101029.13;5096805;28;20027;-86
2021/10/15 08:37:21;;;;;;;7.93;4.88;;;;;;;12.92;nan;101028.63;5097884;28;20020;-86
2021/10/15 08:39:47;;;;;;;9.38;4.88;;;;;;;13.07;nan;101025.25;5105971;28;20504;-85
2021/10/15 08:42:12;;;;;;;8.57;5.40;;;;;;;13.17;nan;101014.59;5094451;28;20043;-87
2021/10/15 08:44:50;;;;;;;6.78;4.72;;;;;;;13.27;nan;101020.03;5095509;28;20036;-87
2021/10/15 08:47:17;;;;;;;8.13;4.68;;;;;;;13.36;nan;101017.69;5100424;28;20020;-87
2021/10/15 08:49:44;;;;;;;10.20;5.30;;;;;;;13.26;nan;101010.34;5089299;28;20032;-86
2021/10/15 08:52:14;;;;;;;7.65;4.57;;;;;;;13.16;nan;101013.78;5079159;28;20471;-88
2021/10/15 08:54:43;;;;;;;6.22;4.25;;;;;;;13.30;nan;101019.56;5074729;28;20299;-88
2021/10/15 08:57:11;;;;;;;7.18;4.72;;;;;;;13.28;nan;101017.13;5079995;28;20091;-88
2021/10/15 08:59:41;;;;;;;7.65;4.13;;;;;;;13.20;nan;101008.72;5095038;28;20024;-85
2021/10/15 09:02:12;;;;;;;5.57;4.05;;;;;;;13.14;nan;101017.78;5069895;28;20493;-85
2021/10/15 09:05:04;;;;;;;8.25;4.03;;;;;;;13.24;nan;101005.22;5073704;28;20032;-87
2021/10/15 09:07:29;;;;;;;5.88;4.35;;;;;;;13.22;nan;101011.94;5088152;28;20062;-87
2021/10/15 09:11:03;;;;;;;;;;;;;;;;;;;;;
2021/10/15 09:13:39;;;;;;;5.05;3.58;;;;;;;13.25;nan;101020.31;5057469;28;20039;-90
2021/10/15 09:16:06;;;;;;;5.25;3.88;;;;;;;13.22;nan;101022.72;5070614;28;20036;-85
2021/10/15 09:18:32;;;;;;;4.70;3.72;;;;;;;13.25;nan;101016.81;5072812;28;20410;-90
2021/10/15 09:21:12;;;;;;;4.45;3.33;;;;;;;13.10;nan;101012.09;5090915;28;20081;-86
2021/10/15 09:23:49;;;;;;;4.82;3.33;;;;;;;13.13;nan;101000.03;5073577;28;20032;-85
2021/10/15 09:26:18;;;;;;;4.63;3.08;;;;;;;13.08;nan;101000.78;5073469;28;20039;-85
2021/10/15 09:28:47;;;;;;;5.93;3.95;;;;;;;12.96;nan;101003.69;5072766;28;20024;-86
2021/10/15 09:31:14;;;;;;;8.15;3.45;;;;;;;13.01;nan;100997.50;5073444;28;20024;-85
2021/10/15 09:33:58;;;;;;;5.60;3.25;;;;;;;13.15;nan;100996.00;5072791;28;20035;-86
2021/10/15 09:36:23;;;;;;;6.40;3.30;;;;;;;13.16;nan;101007.59;5079932;28;20048;-85
2021/10/15 09:38:51;;;;;;;6.28;3.58;;;;;;;13.14;nan;101004.34;5090965;28;20051;-87
2021/10/15 09:41:42;;;;;;;5.30;3.22;;;;;;;13.08;nan;101003.47;5078498;28;20024;-83
2021/10/15 09:44:27;;;;;;;4.55;3.30;;;;;;;13.02;nan;100997.25;5075902;28;20027;-89
2021/10/15 09:47:14;;;;;;;6.55;2.85;;;;;;;13.05;nan;101005.88;5070300;28;20256;-91
2021/10/15 09:49:54;;;;;;;3.88;2.78;;;;;;;13.14;nan;101004.34;5069270;28;20485;-90
2021/10/15 09:52:28;;;;;;;6.10;3.00;;;;;;;13.20;nan;101006.00;5067844;28;20039;-89
2021/10/15 09:55:05;;;;;;;6.97;3.03;;;;;;;13.29;nan;101001.78;5088476;28;20047;-89
2021/10/15 09:57:39;;;;;;;4.68;3.00;;;;;;;13.41;nan;100997.00;5098268;28;20070;-90
2021/10/15 10:00:09;;;;;;;4.60;2.70;;;;;;;13.43;nan;100985.97;5077571;28;20094;-85
2021/10/15 10:02:35;;;;;;;3.55;2.60;;;;;;;13.59;nan;100993.88;5095743;28;20023;-86
2021/10/15 10:05:12;;;;;;;6.32;2.40;;;;;;;13.67;nan;100997.16;5078776;28;20020;-85
2021/10/15 10:07:42;;;;;;;5.03;2.30;;;;;;;13.69;nan;100992.31;5089577;28;20051;-85
2021/10/15 10:10:10;;;;;;;4.82;2.65;;;;;;;13.66;nan;101000.91;5069210;28;20532;-86
2021/10/15 10:12:38;;;;;;;3.22;2.20;;;;;;;13.75;nan;101004.72;5070190;28;20028;-88
2021/10/15 10:15:07;;;;;;;3.78;2.30;;;;;;;13.76;nan;101001.75;5072333;28;20051;-89
2021/10/15 10:17:52;;;;;;;4.70;2.60;;;;;;;13.65;nan;101007.38;5072418;28;20051;-88
2021/10/15 10:20:33;;;;;;;6.53;2.22;;;;;;;13.47;nan;101014.00;5069051;28;20035;-90
2021/10/15 10:23:04;;;;;;;3.25;2.20;;;;;;;13.51;nan;101005.13;5071572;28;20028;-85
2021/10/15 10:25:32;;;;;;;3.20;2.50;;;;;;;13.42;nan;101005.88;5073515;28;20505;-86
2021/10/15 10:28:20;;;;;;;5.28;2.42;;;;;;;13.27;nan;100999.31;5070428;28;20040;-87
2021/10/15 10:30:56;;;;;;;7.40;2.70;;;;;;;13.28;nan;101000.97;5065254;28;20024;-88
2021/10/15 10:33:31;;;;;;;3.75;2.20;;;;;;;13.20;nan;101004.13;5072439;28;20035;-88
2021/10/15 10:36:13;;;;;;;5.97;2.65;;;;;;;13.31;nan;101007.72;5070019;28;20031;-89
2021/10/15 10:38:41;;;;;;;4.70;2.40;;;;;;;13.11;nan;101004.88;5072812;28;20027;-89
2021/10/15 10:41:06;;;;;;;5.32;2.97;;;;;;;12.81;nan;101014.31;5068572;28;20119;-87
2021/10/15 10:43:44;;;;;;;6.40;2.85;;;;;;;12.42;nan;101007.50;5066396;28;20111;-88
2021/10/15 10:46:20;;;;;;;3.65;2.88;;;;;;;12.22;nan;101011.59;5079492;28;20128;-87
2021/10/15 10:48:49;;;;;;;4.70;3.20;;;;;;;12.12;nan;101008.78;5064090;28;20031;-87
2021/10/15 10:51:15;;;;;;;6.60;3.00;;;;;;;12.15;nan;101012.84;5076045;28;20027;-86
2021/10/15 10:54:05;;;;;;;6.03;3.13;;;;;;;12.01;nan;101018.59;5108772;28;20062;-89
2021/10/15 11:00:15;;;;;;;3.97;3.00;;;;;;;12.04;nan;101020.78;5078046;28;20027;-90
2021/10/15 11:02:48;;;;;;;3.78;3.03;;;;;;;12.07;nan;101022.16;5108738;28;20062;-89
2021/10/15 11:05:31;;;;;;;6.00;3.78;;;;;;;11.95;nan;101021.47;5094222;28;20047;-89
2021/10/15 11:08:27;;;;;;;4.93;3.55;;;;;;;12.05;nan;101026.97;5093002;28;20051;-92
2021/10/15 11:11:33;;;;;;;5.30;3.17;;;;;;;12.01;nan;101031.22;5101675;28;20034;-89
2021/10/15 11:14:21;;;;;;;7.40;3.60;;;;;;;11.88;nan;101032.41;5089177;28;20031;-91
2021/10/15 11:16:47;;;;;;;4.78;2.92;;;;;;;11.87;nan;101036.16;5088718;28;20027;-88
2021/10/15 11:19:17;;;;;;;5.65;3.10;;;;;;;11.69;nan;101031.06;5110565;28;20027;-88
2021/10/15 11:21:43;;;;;;;8.30;3.78;;;;;;;11.64;nan;101039.84;5091934;28;20031;-87
2021/10/15 11:24:13;;;;;;;4.63;3.00;;;;;;;11.69;nan;101041.78;5089713;28;20031;-88
2021/10/15 11:26:40;;;;;;;5.43;3.30;;;;;;;11.57;nan;101039.22;5099190;28;20020;-88
2021/10/15 11:29:07;;;;;;;5.78;2.95;;;;;;;11.62;nan;101049.19;5116902;27;20015;-88
2021/10/15 11:31:32;;;;;;;16.48;3.72;;;;;;;11.52;nan;101054.44;5094638;28;20027;-87
2021/10/15 11:34:11;;;;;;;5.30;3.47;;;;;;;11.46;nan;101048.16;5098533;28;20015;-89
2021/10/15 11:39:16;;;;;;;6.07;3.30;;;;;;;11.48;nan;101054.91;5026086;28;20042;-50
2021/10/15 11:41:51;;;;;;;6.65;3.58;;;;;;;11.38;nan;101067.38;5025170;28;20044;-48
2021/10/15 11:44:36;;;;;;;7.72;3.90;;;;;;;11.46;nan;101075.00;5026238;28;20399;-52
2021/10/15 11:47:03;;;;;;;8.07;3.70;;;;;;;11.33;nan;101092.25;5026583;28;20018;-49
2021/10/15 11:49:36;;;;;;;6.20;3.42;;;;;;;11.40;nan;101119.72;5026800;28;20095;-48
2021/10/15 11:52:02;;;;;;;3.08;1.55;;;;;;;11.21;nan;101126.38;5025350;28;20072;-48
2021/10/15 11:54:27;;;;;;;0.75;0.52;;;;;;;10.58;nan;101117.47;5026818;28;20033;-49